createdAt,value
2016-11-30T00:00:18.778Z,27.69
2016-11-30T00:01:18.471Z,27.75
2016-11-30T00:02:18.802Z,27.65
2016-11-30T00:03:18.851Z,27.69
2016-11-30T00:04:18.498Z,27.7
2016-11-30T00:05:18.872Z,27.74
2016-11-30T00:06:19.661Z,27.67
2016-11-30T00:07:18.830Z,27.72
2016-11-30T00:08:18.262Z,27.74
2016-11-30T00:09:18.587Z,27.77
2016-11-30T00:10:18.541Z,27.72
2016-11-30T00:11:18.286Z,27.67
2016-11-30T00:12:18.559Z,27.72
2016-11-30T00:13:18.303Z,27.74
2016-11-30T00:14:18.935Z,27.78
2016-11-30T00:15:19.193Z,27.74
2016-11-30T00:16:18.635Z,27.77
2016-11-30T00:17:18.594Z,27.78
2016-11-30T00:18:18.711Z,27.77
2016-11-30T00:19:18.924Z,27.77
2016-11-30T00:20:18.932Z,27.79
2016-11-30T00:21:18.625Z,27.69
2016-11-30T00:22:18.997Z,27.74
2016-11-30T00:23:18.740Z,27.66
2016-11-30T00:24:18.695Z,27.7
2016-11-30T00:25:18.973Z,27.65
2016-11-30T00:26:19.126Z,27.69
2016-11-30T00:27:18.409Z,27.66
2016-11-30T00:28:18.732Z,27.63
2016-11-30T00:29:18.836Z,27.7
2016-11-30T00:30:18.747Z,27.66
2016-11-30T00:31:19.017Z,27.74
2016-11-30T00:32:18.405Z,27.63
2016-11-30T00:33:18.715Z,27.69
2016-11-30T00:34:19.092Z,27.74
2016-11-30T00:35:18.475Z,27.72
2016-11-30T00:36:19.056Z,27.77
2016-11-30T00:37:19.803Z,27.74
2016-11-30T00:38:18.757Z,27.81
2016-11-30T00:39:19.102Z,27.78
2016-11-30T00:40:19.136Z,27.77
2016-11-30T00:41:19.141Z,27.82
2016-11-30T00:42:18.839Z,27.78
2016-11-30T00:43:18.534Z,27.69
2016-11-30T00:44:19.451Z,27.81
2016-11-30T00:45:19.124Z,27.75
2016-11-30T00:46:18.869Z,27.81
2016-11-30T00:47:19.140Z,27.66
2016-11-30T00:48:19.673Z,27.74
2016-11-30T00:49:18.841Z,27.67
2016-11-30T00:50:19.299Z,27.72
2016-11-30T00:51:18.912Z,27.82
2016-11-30T00:52:18.554Z,27.78
2016-11-30T00:53:18.560Z,27.75
2016-11-30T00:54:18.878Z,27.72
2016-11-30T00:55:18.887Z,27.67
2016-11-30T00:56:18.583Z,27.74
2016-11-30T00:57:19.265Z,27.74
2016-11-30T00:58:18.598Z,27.72
2016-11-30T00:59:20.333Z,27.62
2016-11-30T01:00:19.241Z,27.63
2016-11-30T01:01:19.647Z,27.72
2016-11-30T01:02:18.675Z,27.66
2016-11-30T01:03:19.265Z,27.62
2016-11-30T01:04:18.643Z,27.66
2016-11-30T01:05:18.651Z,27.66
2016-11-30T01:06:18.982Z,27.66
2016-11-30T01:07:19.029Z,27.6
2016-11-30T01:08:19.036Z,27.63
2016-11-30T01:09:19.306Z,27.62
2016-11-30T01:10:19.003Z,27.65
2016-11-30T01:11:19.008Z,27.63
2016-11-30T01:12:19.980Z,27.62
2016-11-30T01:13:19.028Z,27.55
2016-11-30T01:14:19.031Z,27.51
2016-11-30T01:15:18.732Z,27.57
2016-11-30T01:16:19.145Z,27.55
2016-11-30T01:17:19.366Z,27.57
2016-11-30T01:18:19.063Z,27.55
2016-11-30T01:19:19.067Z,27.57
2016-11-30T01:20:19.075Z,27.54
2016-11-30T01:21:19.133Z,27.49
2016-11-30T01:22:19.402Z,27.5
2016-11-30T01:23:20.418Z,27.47
2016-11-30T01:24:19.112Z,27.39
2016-11-30T01:25:19.214Z,27.47
2016-11-30T01:26:19.435Z,27.37
2016-11-30T01:27:19.179Z,27.39
2016-11-30T01:28:19.448Z,27.41
2016-11-30T01:29:19.457Z,27.43
2016-11-30T01:30:19.228Z,27.41
2016-11-30T01:31:18.846Z,27.36
2016-11-30T01:32:19.529Z,27.39
2016-11-30T01:33:18.864Z,27.37
2016-11-30T01:34:19.239Z,27.36
2016-11-30T01:35:19.191Z,27.34
2016-11-30T01:36:19.247Z,27.31
2016-11-30T01:37:18.946Z,27.36
2016-11-30T01:38:19.216Z,27.25
2016-11-30T01:39:19.542Z,27.36
2016-11-30T01:40:19.278Z,27.28
2016-11-30T01:41:18.926Z,27.31
2016-11-30T01:42:19.607Z,27.28
2016-11-30T01:43:19.619Z,27.29
2016-11-30T01:44:19.308Z,27.37
2016-11-30T01:45:19.579Z,27.25
2016-11-30T01:46:19.273Z,27.24
2016-11-30T01:47:19.282Z,27.31
2016-11-30T01:48:19.027Z,27.4
2016-11-30T01:49:19.609Z,27.24
2016-11-30T01:50:19.291Z,27.31
2016-11-30T01:51:19.626Z,27.25
2016-11-30T01:52:19.633Z,27.24
2016-11-30T01:53:19.641Z,27.27
2016-11-30T01:54:20.085Z,27.39
2016-11-30T01:55:19.708Z,27.34
2016-11-30T01:56:19.404Z,27.41
2016-11-30T01:57:19.357Z,27.32
2016-11-30T01:58:19.380Z,27.32
2016-11-30T01:59:19.685Z,27.36
2016-11-30T02:00:19.380Z,27.28
2016-11-30T02:01:19.390Z,27.36
2016-11-30T02:02:19.707Z,27.36
2016-11-30T02:03:19.819Z,27.34
2016-11-30T02:04:19.099Z,27.34
2016-11-30T02:05:20.955Z,27.4
2016-11-30T02:06:19.168Z,27.4
2016-11-30T02:07:20.138Z,27.36
2016-11-30T02:08:19.494Z,27.4
2016-11-30T02:09:19.448Z,27.31
2016-11-30T02:10:19.923Z,27.34
2016-11-30T02:11:19.152Z,27.4
2016-11-30T02:12:19.495Z,27.43
2016-11-30T02:13:19.176Z,27.36
2016-11-30T02:14:19.801Z,27.4
2016-11-30T02:15:19.832Z,27.44
2016-11-30T02:16:19.238Z,27.4
2016-11-30T02:17:19.874Z,27.4
2016-11-30T02:18:20.886Z,27.37
2016-11-30T02:19:19.590Z,27.43
2016-11-30T02:20:19.221Z,27.43
2016-11-30T02:21:19.543Z,27.34
2016-11-30T02:22:19.860Z,27.39
2016-11-30T02:23:19.868Z,27.43
2016-11-30T02:24:19.863Z,27.41
2016-11-30T02:25:20.836Z,27.39
2016-11-30T02:26:19.945Z,27.4
2016-11-30T02:27:19.635Z,27.41
2016-11-30T02:28:19.282Z,27.37
2016-11-30T02:29:19.648Z,27.43
2016-11-30T02:30:19.663Z,27.37
2016-11-30T02:31:19.981Z,27.36
2016-11-30T02:32:19.676Z,27.41
2016-11-30T02:33:19.680Z,27.43
2016-11-30T02:34:19.691Z,27.39
2016-11-30T02:35:19.333Z,27.27
2016-11-30T02:36:19.893Z,27.36
2016-11-30T02:37:19.763Z,27.4
2016-11-30T02:38:19.673Z,27.31
2016-11-30T02:39:19.992Z,27.4
2016-11-30T02:40:19.685Z,27.44
2016-11-30T02:41:20.057Z,27.4
2016-11-30T02:42:20.012Z,27.43
2016-11-30T02:43:19.397Z,27.37
2016-11-30T02:44:19.453Z,27.43
2016-11-30T02:45:19.772Z,27.44
2016-11-30T02:46:19.517Z,27.39
2016-11-30T02:47:21.151Z,27.37
2016-11-30T02:48:19.798Z,27.34
2016-11-30T02:49:20.566Z,27.41
2016-11-30T02:50:19.449Z,27.31
2016-11-30T02:51:19.916Z,27.36
2016-11-30T02:52:19.513Z,27.43
2016-11-30T02:53:21.049Z,27.37
2016-11-30T02:54:20.156Z,27.43
2016-11-30T02:55:19.848Z,27.4
2016-11-30T02:56:20.105Z,27.49
2016-11-30T02:57:20.126Z,27.31
2016-11-30T02:58:20.137Z,27.31
2016-11-30T02:59:20.191Z,27.36
2016-11-30T03:00:19.527Z,27.32
2016-11-30T03:01:19.531Z,27.34
2016-11-30T03:02:20.515Z,27.29
2016-11-30T03:03:20.176Z,27.31
2016-11-30T03:04:20.282Z,27.37
2016-11-30T03:05:19.926Z,27.32
2016-11-30T03:06:20.195Z,27.34
2016-11-30T03:07:20.204Z,27.32
2016-11-30T03:08:20.259Z,27.36
2016-11-30T03:09:20.108Z,27.34
2016-11-30T03:10:20.315Z,27.32
2016-11-30T03:11:19.972Z,27.29
2016-11-30T03:12:20.290Z,27.34
2016-11-30T03:13:19.671Z,27.39
2016-11-30T03:14:19.996Z,27.37
2016-11-30T03:15:19.999Z,27.28
2016-11-30T03:16:20.016Z,27.25
2016-11-30T03:17:19.704Z,27.22
2016-11-30T03:18:20.026Z,27.25
2016-11-30T03:19:19.980Z,27.27
2016-11-30T03:20:20.451Z,27.21
2016-11-30T03:21:19.998Z,27.28
2016-11-30T03:22:20.370Z,27.25
2016-11-30T03:23:20.327Z,27.25
2016-11-30T03:24:19.706Z,27.28
2016-11-30T03:25:19.714Z,27.28
2016-11-30T03:26:20.039Z,27.27
2016-11-30T03:27:20.094Z,27.36
2016-11-30T03:28:20.053Z,27.32
2016-11-30T03:29:20.106Z,27.28
2016-11-30T03:30:20.386Z,27.28
2016-11-30T03:31:20.911Z,27.31
2016-11-30T03:32:20.398Z,27.31
2016-11-30T03:33:20.638Z,27.36
2016-11-30T03:34:20.100Z,27.34
2016-11-30T03:35:20.161Z,27.32
2016-11-30T03:36:20.121Z,27.28
2016-11-30T03:37:20.171Z,27.25
2016-11-30T03:38:20.127Z,27.25
2016-11-30T03:39:19.829Z,27.24
2016-11-30T03:40:19.833Z,27.28
2016-11-30T03:41:20.153Z,27.36
2016-11-30T03:42:21.592Z,27.29
2016-11-30T03:43:19.853Z,27.39
2016-11-30T03:44:21.055Z,27.32
2016-11-30T03:45:20.283Z,27.28
2016-11-30T03:46:20.239Z,27.29
2016-11-30T03:47:20.198Z,27.21
2016-11-30T03:48:20.568Z,27.27
2016-11-30T03:49:20.523Z,27.31
2016-11-30T03:50:20.272Z,27.36
2016-11-30T03:51:20.232Z,27.31
2016-11-30T03:52:20.603Z,27.34
2016-11-30T03:53:20.607Z,27.4
2016-11-30T03:54:19.938Z,27.31
2016-11-30T03:55:21.710Z,27.34
2016-11-30T03:56:20.577Z,27.36
2016-11-30T03:57:20.014Z,27.28
2016-11-30T03:58:20.593Z,27.39
2016-11-30T03:59:20.375Z,27.44
2016-11-30T04:00:20.034Z,27.44
2016-11-30T04:01:20.301Z,27.39
2016-11-30T04:02:20.677Z,27.34
2016-11-30T04:03:20.420Z,27.36
2016-11-30T04:04:20.325Z,27.4
2016-11-30T04:05:20.072Z,27.41
2016-11-30T04:06:21.992Z,27.4
2016-11-30T04:07:20.037Z,27.43
2016-11-30T04:08:20.408Z,27.37
2016-11-30T04:09:20.465Z,27.43
2016-11-30T04:10:20.688Z,27.36
2016-11-30T04:11:20.694Z,27.37
2016-11-30T04:12:20.387Z,27.25
2016-11-30T04:13:20.708Z,27.44
2016-11-30T04:14:20.401Z,27.39
2016-11-30T04:15:20.564Z,27.44
2016-11-30T04:16:20.729Z,27.43
2016-11-30T04:17:22.452Z,27.4
2016-11-30T04:18:20.484Z,27.36
2016-11-30T04:19:20.442Z,27.31
2016-11-30T04:20:20.810Z,27.32
2016-11-30T04:21:20.818Z,27.44
2016-11-30T04:22:20.777Z,27.44
2016-11-30T04:23:20.786Z,27.37
2016-11-30T04:24:20.479Z,27.37
2016-11-30T04:25:20.815Z,27.4
2016-11-30T04:26:20.919Z,27.46
2016-11-30T04:27:20.189Z,27.47
2016-11-30T04:28:20.821Z,27.37
2016-11-30T04:29:20.826Z,27.4
2016-11-30T04:30:20.575Z,27.39
2016-11-30T04:31:20.321Z,27.37
2016-11-30T04:32:20.953Z,27.39
2016-11-30T04:33:20.860Z,27.39
2016-11-30T04:34:20.552Z,27.39
2016-11-30T04:35:20.303Z,27.4
2016-11-30T04:36:20.303Z,27.41
2016-11-30T04:37:21.165Z,27.51
2016-11-30T04:38:20.683Z,27.5
2016-11-30T04:39:20.693Z,27.46
2016-11-30T04:40:20.620Z,27.47
2016-11-30T04:41:20.660Z,27.54
2016-11-30T04:42:20.618Z,27.51
2016-11-30T04:43:20.363Z,27.49
2016-11-30T04:44:35.248Z,27.51
2016-11-30T04:45:20.378Z,27.41
2016-11-30T04:46:20.646Z,27.51
2016-11-30T04:47:20.655Z,27.51
2016-11-30T04:48:21.611Z,27.54
2016-11-30T04:49:20.667Z,27.47
2016-11-30T04:50:20.879Z,27.47
2016-11-30T04:51:20.736Z,27.46
2016-11-30T04:52:20.693Z,27.55
2016-11-30T04:53:20.752Z,27.54
2016-11-30T04:54:20.756Z,27.55
2016-11-30T04:55:20.765Z,27.54
2016-11-30T04:56:20.777Z,27.51
2016-11-30T04:57:21.097Z,27.57
2016-11-30T04:58:20.788Z,27.51
2016-11-30T04:59:22.341Z,27.51
2016-11-30T05:00:20.805Z,27.49
2016-11-30T05:01:21.627Z,27.5
2016-11-30T05:02:20.824Z,27.49
2016-11-30T05:03:21.140Z,27.5
2016-11-30T05:04:20.477Z,27.55
2016-11-30T05:05:20.793Z,27.54
2016-11-30T05:06:20.486Z,27.5
2016-11-30T05:07:20.496Z,27.44
2016-11-30T05:08:20.500Z,27.55
2016-11-30T05:09:20.564Z,27.55
2016-11-30T05:10:20.830Z,27.62
2016-11-30T05:11:20.896Z,27.59
2016-11-30T05:12:22.225Z,27.51
2016-11-30T05:13:20.908Z,27.55
2016-11-30T05:14:20.548Z,27.59
2016-11-30T05:15:20.922Z,27.57
2016-11-30T05:16:20.932Z,27.59
2016-11-30T05:17:20.624Z,27.55
2016-11-30T05:18:21.239Z,27.51
2016-11-30T05:19:20.897Z,27.51
2016-11-30T05:20:20.597Z,27.55
2016-11-30T05:21:20.915Z,27.51
2016-11-30T05:22:20.974Z,27.49
2016-11-30T05:23:20.617Z,27.59
2016-11-30T05:24:21.045Z,27.49
2016-11-30T05:25:20.681Z,27.55
2016-11-30T05:26:20.638Z,27.54
2016-11-30T05:27:21.274Z,27.54
2016-11-30T05:28:21.331Z,27.54
2016-11-30T05:29:20.979Z,27.57
2016-11-30T05:30:20.670Z,27.55
2016-11-30T05:31:20.686Z,27.54
2016-11-30T05:32:21.287Z,27.49
2016-11-30T05:33:21.317Z,27.57
2016-11-30T05:34:21.003Z,27.49
2016-11-30T05:35:21.335Z,27.55
2016-11-30T05:36:20.714Z,27.55
2016-11-30T05:37:21.398Z,27.59
2016-11-30T05:38:21.047Z,27.62
2016-11-30T05:39:21.100Z,27.54
2016-11-30T05:40:21.113Z,27.51
2016-11-30T05:41:21.382Z,27.55
2016-11-30T05:42:21.124Z,27.49
2016-11-30T05:43:21.821Z,27.49
2016-11-30T05:44:37.769Z,27.51
2016-11-30T05:45:21.466Z,27.5
2016-11-30T05:46:21.105Z,27.54
2016-11-30T05:47:21.477Z,27.51
2016-11-30T05:48:21.174Z,27.5
2016-11-30T05:49:20.814Z,27.51
2016-11-30T05:50:21.185Z,27.55
2016-11-30T05:51:21.143Z,27.57
2016-11-30T05:52:21.207Z,27.55
2016-11-30T05:53:21.476Z,27.51
2016-11-30T05:54:20.866Z,27.6
2016-11-30T05:55:20.861Z,27.57
2016-11-30T05:56:21.868Z,27.59
2016-11-30T05:57:21.190Z,27.62
2016-11-30T05:58:21.199Z,27.59
2016-11-30T05:59:20.941Z,27.5
2016-11-30T06:00:21.261Z,27.54
2016-11-30T06:01:21.272Z,27.57
2016-11-30T06:02:21.545Z,27.47
2016-11-30T06:03:21.546Z,27.63
2016-11-30T06:04:21.606Z,27.62
2016-11-30T06:05:21.302Z,27.51
2016-11-30T06:06:21.569Z,27.57
2016-11-30T06:07:22.315Z,27.6
2016-11-30T06:08:21.272Z,27.59
2016-11-30T06:09:21.070Z,27.55
2016-11-30T06:10:21.340Z,27.5
2016-11-30T06:11:21.295Z,27.44
2016-11-30T06:12:21.307Z,27.55
2016-11-30T06:13:21.312Z,27.55
2016-11-30T06:14:35.888Z,27.57
2016-11-30T06:15:21.400Z,27.55
2016-11-30T06:16:21.331Z,27.63
2016-11-30T06:17:21.704Z,27.59
2016-11-30T06:18:22.762Z,27.67
2016-11-30T06:19:21.358Z,27.51
2016-11-30T06:20:21.782Z,27.57
2016-11-30T06:21:21.689Z,27.57
2016-11-30T06:22:21.381Z,27.5
2016-11-30T06:23:21.700Z,27.54
2016-11-30T06:24:21.383Z,27.54
2016-11-30T06:25:21.721Z,27.59
2016-11-30T06:26:21.099Z,27.62
2016-11-30T06:27:21.734Z,27.54
2016-11-30T06:28:21.164Z,27.55
2016-11-30T06:29:21.180Z,27.63
2016-11-30T06:30:21.129Z,27.54
2016-11-30T06:31:21.767Z,27.55
2016-11-30T06:32:21.514Z,27.6
2016-11-30T06:33:21.515Z,27.51
2016-11-30T06:34:21.837Z,27.57
2016-11-30T06:35:21.267Z,27.51
2016-11-30T06:36:21.800Z,27.55
2016-11-30T06:37:21.494Z,27.54
2016-11-30T06:38:22.692Z,27.6
2016-11-30T06:39:21.896Z,27.54
2016-11-30T06:40:21.922Z,27.6
2016-11-30T06:41:21.527Z,27.47
2016-11-30T06:42:21.536Z,27.54
2016-11-30T06:43:21.907Z,27.51
2016-11-30T06:44:36.428Z,27.59
2016-11-30T06:45:21.872Z,27.55
2016-11-30T06:46:21.929Z,27.55
2016-11-30T06:47:21.311Z,27.6
2016-11-30T06:48:21.892Z,27.49
2016-11-30T06:49:23.237Z,27.51
2016-11-30T06:50:21.647Z,27.55
2016-11-30T06:51:22.466Z,27.51
2016-11-30T06:52:21.924Z,27.54
2016-11-30T06:53:21.982Z,27.57
2016-11-30T06:54:21.679Z,27.59
2016-11-30T06:55:21.998Z,27.55
2016-11-30T06:56:21.699Z,27.5
2016-11-30T06:57:21.700Z,27.5
2016-11-30T06:58:21.710Z,27.55
2016-11-30T06:59:21.664Z,27.51
2016-11-30T07:00:21.672Z,27.59
2016-11-30T07:01:21.678Z,27.55
2016-11-30T07:02:22.807Z,27.63
2016-11-30T07:03:21.385Z,27.51
2016-11-30T07:04:21.393Z,27.55
2016-11-30T07:05:21.451Z,27.62
2016-11-30T07:06:21.452Z,27.65
2016-11-30T07:07:22.147Z,27.65
2016-11-30T07:08:21.736Z,27.65
2016-11-30T07:09:22.292Z,27.55
2016-11-30T07:10:21.747Z,27.66
2016-11-30T07:11:21.762Z,27.57
2016-11-30T07:12:21.762Z,27.55
2016-11-30T07:13:21.824Z,27.55
2016-11-30T07:14:21.469Z,27.57
2016-11-30T07:15:21.836Z,27.51
2016-11-30T07:16:22.109Z,27.57
2016-11-30T07:17:21.488Z,27.55
2016-11-30T07:18:21.857Z,27.55
2016-11-30T07:19:21.867Z,27.55
2016-11-30T07:20:23.246Z,27.6
2016-11-30T07:21:22.133Z,27.59
2016-11-30T07:22:22.763Z,27.57
2016-11-30T07:23:21.847Z,27.62
2016-11-30T07:24:22.217Z,27.55
2016-11-30T07:25:21.863Z,27.65
2016-11-30T07:26:21.922Z,27.63
2016-11-30T07:27:22.192Z,27.66
2016-11-30T07:28:22.236Z,27.55
2016-11-30T07:29:21.893Z,27.57
2016-11-30T07:30:22.001Z,27.57
2016-11-30T07:31:21.917Z,27.74
2016-11-30T07:32:21.915Z,27.87
2016-11-30T07:33:22.956Z,27.93
2016-11-30T07:34:21.622Z,28.07
2016-11-30T07:35:22.642Z,28.11
2016-11-30T07:36:21.691Z,28.36
2016-11-30T07:37:22.004Z,28.56
2016-11-30T07:38:21.970Z,28.67
2016-11-30T07:39:22.021Z,28.92
2016-11-30T07:40:22.290Z,29
2016-11-30T07:41:22.034Z,29.04
2016-11-30T07:42:21.686Z,29.19
2016-11-30T07:43:22.105Z,29.33
2016-11-30T07:44:26.097Z,29.46
2016-11-30T07:45:22.033Z,29.49
2016-11-30T07:46:22.885Z,29.61
2016-11-30T07:47:21.821Z,29.61
2016-11-30T07:48:22.406Z,29.63
2016-11-30T07:49:22.101Z,29.52
2016-11-30T07:50:21.755Z,29.46
2016-11-30T07:51:22.120Z,29.51
2016-11-30T07:52:22.076Z,29.37
2016-11-30T07:53:21.870Z,29.41
2016-11-30T07:54:21.771Z,29.24
2016-11-30T07:55:22.148Z,29.26
2016-11-30T07:56:21.791Z,29.19
2016-11-30T07:57:21.801Z,29.02
2016-11-30T07:58:22.119Z,29.04
2016-11-30T07:59:22.175Z,28.98
2016-11-30T08:00:21.872Z,29.02
2016-11-30T08:01:22.461Z,28.88
2016-11-30T08:02:22.528Z,28.76
2016-11-30T08:03:22.159Z,28.74
2016-11-30T08:04:22.702Z,28.58
2016-11-30T08:05:21.910Z,28.61
2016-11-30T08:06:22.285Z,28.64
2016-11-30T08:07:22.189Z,28.58
2016-11-30T08:08:21.881Z,28.49
2016-11-30T08:09:22.221Z,28.51
2016-11-30T08:10:22.263Z,28.48
2016-11-30T08:11:21.964Z,28.33
2016-11-30T08:12:22.541Z,28.33
2016-11-30T08:13:22.240Z,28.21
2016-11-30T08:14:22.294Z,28.27
2016-11-30T08:15:23.118Z,28.15
2016-11-30T08:16:22.572Z,28.07
2016-11-30T08:17:22.517Z,28.02
2016-11-30T08:18:22.324Z,28.02
2016-11-30T08:19:22.599Z,27.87
2016-11-30T08:20:22.603Z,27.99
2016-11-30T08:21:22.612Z,27.87
2016-11-30T08:22:22.619Z,27.82
2016-11-30T08:23:22.050Z,27.79
2016-11-30T08:24:22.062Z,27.7
2016-11-30T08:25:22.381Z,27.74
2016-11-30T08:26:23.456Z,27.51
2016-11-30T08:27:22.392Z,27.55
2016-11-30T08:28:22.906Z,27.6
2016-11-30T08:29:22.363Z,27.5
2016-11-30T08:30:22.062Z,27.49
2016-11-30T08:31:22.688Z,27.47
2016-11-30T08:32:22.387Z,27.43
2016-11-30T08:33:22.759Z,27.43
2016-11-30T08:34:22.090Z,27.4
2016-11-30T08:35:22.509Z,27.31
2016-11-30T08:36:22.420Z,27.32
2016-11-30T08:37:23.581Z,27.28
2016-11-30T08:38:22.798Z,27.19
2016-11-30T08:39:23.361Z,27.17
2016-11-30T08:40:22.139Z,27.14
2016-11-30T08:41:22.509Z,27.22
2016-11-30T08:42:22.520Z,27.27
2016-11-30T08:43:22.211Z,27.12
2016-11-30T08:44:22.485Z,27.12
2016-11-30T08:45:22.229Z,27.12
2016-11-30T08:46:22.865Z,27.18
2016-11-30T08:47:22.248Z,27.13
2016-11-30T08:48:22.830Z,27.12
2016-11-30T08:49:22.525Z,27.09
2016-11-30T08:50:23.785Z,27.14
2016-11-30T08:51:22.540Z,27.12
2016-11-30T08:52:22.648Z,27.06
2016-11-30T08:53:22.245Z,27.1
2016-11-30T08:54:22.566Z,27.09
2016-11-30T08:55:22.364Z,27.13
2016-11-30T08:56:22.580Z,27.1
2016-11-30T08:57:22.617Z,27.06
2016-11-30T08:58:22.963Z,27.09
2016-11-30T08:59:22.612Z,27.17
2016-11-30T09:00:22.931Z,27.09
2016-11-30T09:01:23.736Z,27.1
2016-11-30T09:02:22.317Z,27.13
2016-11-30T09:03:22.640Z,27.09
2016-11-30T09:04:22.647Z,27.04
2016-11-30T09:05:22.656Z,26.99
2016-11-30T09:06:22.977Z,26.97
2016-11-30T09:07:23.538Z,27.03
2016-11-30T09:08:22.680Z,27.1
2016-11-30T09:09:22.740Z,27.12
2016-11-30T09:10:22.385Z,27.07
2016-11-30T09:11:23.068Z,27.12
2016-11-30T09:12:23.554Z,27.1
2016-11-30T09:13:22.778Z,27.09
2016-11-30T09:14:22.520Z,27.02
2016-11-30T09:15:23.493Z,27.06
2016-11-30T09:16:22.805Z,27.12
2016-11-30T09:17:23.419Z,27.13
2016-11-30T09:18:23.078Z,27.14
2016-11-30T09:19:22.773Z,27.09
2016-11-30T09:20:23.148Z,27.14
2016-11-30T09:21:22.790Z,27.12
2016-11-30T09:22:23.111Z,27.12
2016-11-30T09:23:23.005Z,27.12
2016-11-30T09:24:23.176Z,27.1
2016-11-30T09:25:22.510Z,27.09
2016-11-30T09:26:37.396Z,27.09
2016-11-30T09:27:23.150Z,27.13
2016-11-30T09:28:23.549Z,27.07
2016-11-30T09:29:22.546Z,27.09
2016-11-30T09:30:22.870Z,27.13
2016-11-30T09:31:23.194Z,27.09
2016-11-30T09:32:22.931Z,27.04
2016-11-30T09:33:22.588Z,27.07
2016-11-30T09:34:23.285Z,27.09
2016-11-30T09:35:22.907Z,27.06
2016-11-30T09:36:24.783Z,27.04
2016-11-30T09:37:23.285Z,26.94
2016-11-30T09:38:22.716Z,27
2016-11-30T09:39:22.939Z,26.87
2016-11-30T09:40:22.636Z,26.87
2016-11-30T09:41:23.327Z,26.84
2016-11-30T09:42:23.064Z,26.84
2016-11-30T09:43:23.084Z,26.82
2016-11-30T09:44:39.670Z,26.72
2016-11-30T09:45:23.339Z,26.8
2016-11-30T09:46:23.323Z,26.75
2016-11-30T09:47:23.321Z,26.77
2016-11-30T09:48:23.327Z,26.62
2016-11-30T09:49:23.785Z,26.7
2016-11-30T09:50:23.043Z,26.7
2016-11-30T09:51:23.366Z,26.72
2016-11-30T09:52:23.413Z,26.65
2016-11-30T09:53:23.470Z,26.63
2016-11-30T09:54:22.803Z,26.66
2016-11-30T09:55:23.075Z,26.65
2016-11-30T09:56:23.398Z,26.6
2016-11-30T09:57:22.828Z,26.54
2016-11-30T09:58:24.710Z,26.5
2016-11-30T09:59:23.159Z,26.4
2016-11-30T10:00:23.580Z,26.37
2016-11-30T10:01:23.178Z,26.37
2016-11-30T10:02:23.448Z,26.36
2016-11-30T10:03:23.140Z,26.35
2016-11-30T10:04:23.519Z,26.36
2016-11-30T10:05:23.208Z,26.32
2016-11-30T10:06:23.480Z,26.25
2016-11-30T10:07:23.542Z,26.29
2016-11-30T10:08:23.240Z,26.35
2016-11-30T10:09:23.196Z,26.36
2016-11-30T10:10:23.254Z,26.32
2016-11-30T10:11:23.699Z,26.3
2016-11-30T10:12:23.319Z,26.35
2016-11-30T10:13:23.225Z,26.33
2016-11-30T10:14:23.595Z,26.37
2016-11-30T10:15:23.656Z,26.48
2016-11-30T10:16:23.259Z,26.51
2016-11-30T10:17:23.051Z,26.47
2016-11-30T10:18:23.266Z,26.48
2016-11-30T10:19:23.281Z,26.54
2016-11-30T10:20:24.984Z,26.62
2016-11-30T10:21:23.607Z,26.65
2016-11-30T10:22:23.717Z,26.76
2016-11-30T10:23:23.769Z,26.75
2016-11-30T10:24:23.004Z,26.75
2016-11-30T10:25:23.114Z,26.81
2016-11-30T10:26:23.074Z,26.85
2016-11-30T10:27:23.421Z,26.84
2016-11-30T10:28:23.665Z,26.94
2016-11-30T10:29:23.410Z,26.95
2016-11-30T10:30:23.712Z,27
2016-11-30T10:31:23.064Z,26.95
2016-11-30T10:32:23.070Z,27.04
2016-11-30T10:33:23.843Z,27.06
2016-11-30T10:34:23.713Z,27.1
2016-11-30T10:35:23.722Z,27.18
2016-11-30T10:36:23.417Z,27.13
2016-11-30T10:37:23.424Z,27.09
2016-11-30T10:38:23.795Z,27.17
2016-11-30T10:39:23.804Z,27.12
2016-11-30T10:40:23.810Z,27.25
2016-11-30T10:41:23.508Z,27.24
2016-11-30T10:42:24.254Z,27.28
2016-11-30T10:43:23.787Z,27.22
2016-11-30T10:44:23.480Z,27.32
2016-11-30T10:45:23.488Z,27.34
2016-11-30T10:46:24.649Z,27.34
2016-11-30T10:47:23.907Z,27.36
2016-11-30T10:48:23.829Z,27.44
2016-11-30T10:49:23.583Z,27.41
2016-11-30T10:50:23.528Z,27.4
2016-11-30T10:51:23.949Z,27.39
2016-11-30T10:52:23.910Z,27.31
2016-11-30T10:53:23.241Z,27.43
2016-11-30T10:54:23.872Z,27.41
2016-11-30T10:55:24.057Z,27.39
2016-11-30T10:56:23.890Z,27.39
2016-11-30T10:57:25.373Z,27.4
2016-11-30T10:58:23.383Z,27.51
2016-11-30T10:59:23.914Z,27.43
2016-11-30T11:00:23.610Z,27.39
2016-11-30T11:01:23.617Z,27.41
2016-11-30T11:02:23.935Z,27.41
2016-11-30T11:03:23.633Z,27.41
2016-11-30T11:04:23.948Z,27.36
2016-11-30T11:05:23.961Z,27.29
2016-11-30T11:06:24.008Z,27.47
2016-11-30T11:07:23.665Z,27.31
2016-11-30T11:08:23.982Z,27.29
2016-11-30T11:09:23.680Z,27.21
2016-11-30T11:10:23.746Z,27.27
2016-11-30T11:11:23.380Z,27.12
2016-11-30T11:12:23.406Z,27.21
2016-11-30T11:13:23.515Z,27.24
2016-11-30T11:14:23.732Z,27.22
2016-11-30T11:15:23.514Z,27.17
2016-11-30T11:16:23.784Z,27.1
2016-11-30T11:17:24.507Z,27.13
2016-11-30T11:18:23.848Z,27.12
2016-11-30T11:19:24.138Z,27.12
2016-11-30T11:20:23.766Z,27.13
2016-11-30T11:21:23.774Z,27.1
2016-11-30T11:22:23.833Z,27.1
2016-11-30T11:23:24.105Z,27.14
2016-11-30T11:24:23.795Z,27.17
2016-11-30T11:25:23.496Z,27.06
2016-11-30T11:26:23.912Z,27.14
2016-11-30T11:27:23.820Z,27.09
2016-11-30T11:28:23.879Z,27.12
2016-11-30T11:29:24.144Z,27.02
2016-11-30T11:30:24.992Z,27.04
2016-11-30T11:31:23.914Z,27.06
2016-11-30T11:32:24.160Z,26.99
2016-11-30T11:33:23.553Z,26.95
2016-11-30T11:34:24.244Z,27.06
2016-11-30T11:35:24.201Z,27.07
2016-11-30T11:36:23.580Z,27.04
2016-11-30T11:37:23.587Z,27.1
2016-11-30T11:38:24.222Z,27.06
2016-11-30T11:39:24.281Z,27.06
2016-11-30T11:40:23.943Z,27.04
2016-11-30T11:41:25.245Z,27.03
2016-11-30T11:42:23.949Z,27.04
2016-11-30T11:43:23.998Z,27.02
2016-11-30T11:44:23.963Z,27.07
2016-11-30T11:45:24.014Z,27.06
2016-11-30T11:46:24.294Z,27.03
2016-11-30T11:47:24.029Z,27.09
2016-11-30T11:48:23.991Z,27.1
2016-11-30T11:49:24.412Z,27.07
2016-11-30T11:50:24.008Z,27.09
2016-11-30T11:51:24.427Z,27.04
2016-11-30T11:52:24.935Z,27
2016-11-30T11:53:23.717Z,27.03
2016-11-30T11:54:24.352Z,27.02
2016-11-30T11:55:23.780Z,26.97
2016-11-30T11:56:24.053Z,27
2016-11-30T11:57:23.750Z,26.99
2016-11-30T11:58:24.076Z,26.94
2016-11-30T11:59:23.765Z,26.97
2016-11-30T12:00:24.187Z,27.04
2016-11-30T12:01:24.081Z,27.02
2016-11-30T12:02:24.106Z,27.1
2016-11-30T12:03:24.575Z,27.03
2016-11-30T12:04:24.438Z,26.99
2016-11-30T12:05:25.935Z,26.92
2016-11-30T12:06:24.183Z,26.99
2016-11-30T12:07:24.506Z,27
2016-11-30T12:08:23.888Z,27.03
2016-11-30T12:09:24.189Z,26.99
2016-11-30T12:10:24.215Z,27
2016-11-30T12:11:24.493Z,27
2016-11-30T12:12:24.234Z,26.99
2016-11-30T12:13:24.508Z,27
2016-11-30T12:14:24.349Z,27.02
2016-11-30T12:15:24.519Z,26.97
2016-11-30T12:16:24.267Z,27
2016-11-30T12:17:24.278Z,26.94
2016-11-30T12:18:24.843Z,26.89
2016-11-30T12:19:23.929Z,26.97
2016-11-30T12:20:24.302Z,26.94
2016-11-30T12:21:24.261Z,26.94
2016-11-30T12:22:24.269Z,26.89
2016-11-30T12:23:24.323Z,26.99
2016-11-30T12:24:24.018Z,26.87
2016-11-30T12:25:24.085Z,26.89
2016-11-30T12:26:24.610Z,26.91
2016-11-30T12:27:25.567Z,26.94
2016-11-30T12:28:24.316Z,26.82
2016-11-30T12:29:24.691Z,26.84
2016-11-30T12:30:24.631Z,26.85
2016-11-30T12:31:24.337Z,26.77
2016-11-30T12:32:24.082Z,26.92
2016-11-30T12:33:24.456Z,26.85
2016-11-30T12:34:24.361Z,26.89
2016-11-30T12:35:24.369Z,26.92
2016-11-30T12:36:24.386Z,26.94
2016-11-30T12:37:24.698Z,26.92
2016-11-30T12:38:25.610Z,26.85
2016-11-30T12:39:24.720Z,26.84
2016-11-30T12:40:24.455Z,26.87
2016-11-30T12:41:24.419Z,26.88
2016-11-30T12:42:25.440Z,26.92
2016-11-30T12:43:24.488Z,26.94
2016-11-30T12:44:24.808Z,26.91
2016-11-30T12:45:24.814Z,26.89
2016-11-30T12:46:24.876Z,26.89
2016-11-30T12:47:24.519Z,26.89
2016-11-30T12:48:24.478Z,26.91
2016-11-30T12:49:25.482Z,26.91
2016-11-30T12:50:24.491Z,26.87
2016-11-30T12:51:24.502Z,26.88
2016-11-30T12:52:24.195Z,26.91
2016-11-30T12:53:24.880Z,26.87
2016-11-30T12:54:24.838Z,26.87
2016-11-30T12:55:24.529Z,26.87